Time;durP1;ratioP1;P1;durP2;ratioP2;P2;SDS_P1;SDS_P2;PMS_P1;PMS_P2;Temp;Humidity;BMP_temperature;BMP_pressure;BME280_temperature;BME280_humidity;BME280_pressure;Samples;Min_cycle;Max_cycle;Signal;HPM_P1;HPM_P2
2022/01/12 00:00:39;;;;;;;11.38;8.20;;;21.30;80.10;;;;;;1922716;73;21730;-79
2022/01/12 00:03:11;;;;;;;10.45;7.28;;;21.30;80.10;;;;;;1886526;73;21182;-79
2022/01/12 00:05:42;;;;;;;15.18;8.60;;;21.30;80.50;;;;;;1920664;72;21200;-80
2022/01/12 00:08:13;;;;;;;11.65;7.50;;;21.30;79.30;;;;;;1936439;72;21206;-79
2022/01/12 00:10:44;;;;;;;12.00;7.80;;;21.30;79.20;;;;;;1945059;72;21205;-79
2022/01/12 00:13:16;;;;;;;13.45;7.72;;;21.30;78.90;;;;;;1932671;72;21127;-79
2022/01/12 00:15:47;;;;;;;16.27;8.20;;;21.30;79.90;;;;;;1930223;72;21120;-79
2022/01/12 00:18:18;;;;;;;12.15;8.25;;;21.30;80.00;;;;;;1933260;72;21543;-79
2022/01/12 00:20:49;;;;;;;13.78;8.03;;;21.30;80.30;;;;;;1953048;71;21703;-78
2022/01/12 00:23:21;;;;;;;11.83;8.20;;;21.40;80.30;;;;;;1961664;71;21115;-79
2022/01/12 00:33:29;;;;;;;20.25;14.20;;;21.40;80.50;;;;;;1911297;72;21202;-78
2022/01/12 00:36:00;;;;;;;20.65;13.10;;;21.40;80.70;;;;;;1911719;73;21111;-80
2022/01/12 00:38:31;;;;;;;24.32;13.85;;;21.30;81.10;;;;;;1948920;70;21669;-80
2022/01/12 00:41:02;;;;;;;21.25;13.43;;;21.20;81.50;;;;;;1965619;71;21206;-79
2022/01/12 00:43:34;;;;;;;22.95;13.75;;;21.10;81.80;;;;;;1950046;71;21071;-79
2022/01/12 00:46:05;;;;;;;25.40;14.15;;;21.10;82.70;;;;;;1935954;72;21201;-80
2022/01/12 00:48:36;;;;;;;23.95;14.00;;;21.10;83.30;;;;;;1922646;73;21138;-79
2022/01/12 00:51:08;;;;;;;23.20;13.13;;;21.10;83.70;;;;;;1908394;73;21181;-71
2022/01/12 00:53:40;;;;;;;16.62;11.75;;;21.10;84.00;;;;;;1919289;72;21138;-72
2022/01/12 00:56:11;;;;;;;18.67;10.95;;;21.00;83.80;;;;;;1939428;72;21181;-72
2022/01/12 00:58:41;;;;;;;17.67;11.25;;;21.00;83.90;;;;;;1952372;71;21256;-71
2022/01/12 01:01:12;;;;;;;17.82;11.00;;;21.00;84.30;;;;;;1942000;71;21044;-71
2022/01/12 01:03:43;;;;;;;15.35;10.58;;;21.00;84.60;;;;;;1943760;71;21169;-72
2022/01/12 01:06:14;;;;;;;17.17;11.33;;;20.90;84.80;;;;;;1911298;73;21123;-71
2022/01/12 01:08:48;;;;;;;23.55;12.40;;;20.90;84.90;;;;;;1943049;71;21088;-72
2022/01/12 01:11:19;;;;;;;20.55;10.43;;;20.90;84.90;;;;;;1884769;73;21269;-71
2022/01/12 01:14:09;;;;;;;18.67;11.40;;;21.00;84.70;;;;;;1920047;73;21552;-71
2022/01/12 01:16:29;;;;;;;19.07;11.53;;;21.00;84.50;;;;;;1910555;72;21233;-72
2022/01/12 01:26:34;;;;;;;16.02;11.90;;;21.40;83.00;;;;;;1889875;73;21716;-70
2022/01/12 01:29:05;;;;;;;19.42;12.20;;;21.40;82.90;;;;;;1910651;73;21159;-71
2022/01/12 01:31:37;;;;;;;16.42;10.05;;;21.60;82.80;;;;;;1940703;72;21614;-71
2022/01/12 01:34:11;;;;;;;15.63;10.53;;;21.60;82.90;;;;;;1954512;72;21189;-71
2022/01/12 01:36:43;;;;;;;11.88;8.65;;;21.60;82.80;;;;;;1950804;71;21153;-71
2022/01/12 01:41:52;;;;;;;11.93;8.30;;;21.70;81.50;;;;;;1926646;71;21138;-71
2022/01/12 01:59:48;;;;;;;14.98;8.08;;;22.10;79.70;;;;;;1950798;71;21107;-71
2022/01/12 02:15:07;;;;;;;11.33;7.62;;;22.40;78.60;;;;;;1920828;72;21200;-71
2022/01/12 02:17:47;;;;;;;13.78;8.45;;;22.40;78.70;;;;;;1962191;71;21151;-72
2022/01/12 02:35:50;;;;;;;12.60;8.80;;;22.70;77.30;;;;;;1948191;71;21200;-71
2022/01/12 02:40:43;;;;;;;11.35;8.20;;;22.80;77.40;;;;;;1924350;72;21560;-72
2022/01/12 02:43:27;;;;;;;12.28;8.18;;;22.80;77.40;;;;;;1908201;73;21145;-72
2022/01/12 02:56:02;;;;;;;14.20;8.90;;;23.10;76.50;;;;;;1958138;71;21099;-73
2022/01/12 03:03:44;;;;;;;12.33;8.55;;;23.20;76.70;;;;;;1950494;71;21682;-72
2022/01/12 03:16:32;;;;;;;14.68;8.58;;;23.30;75.70;;;;;;1919788;71;21213;-73
2022/01/12 03:19:05;;;;;;;13.13;7.95;;;23.30;75.50;;;;;;1955388;71;21575;-73
2022/01/12 03:21:36;;;;;;;13.62;8.70;;;23.40;75.70;;;;;;1942160;72;21122;-72
2022/01/12 03:24:08;;;;;;;13.70;8.25;;;23.50;75.50;;;;;;1935504;71;21142;-72
2022/01/12 03:26:39;;;;;;;11.68;8.48;;;23.60;75.60;;;;;;1953429;71;21151;-73
2022/01/12 03:29:10;;;;;;;18.00;8.75;;;23.70;75.20;;;;;;1912921;73;21207;-72
2022/01/12 03:31:41;;;;;;;10.65;8.38;;;23.80;74.80;;;;;;1950035;71;21703;-72
2022/01/12 03:34:25;;;;;;;16.73;8.60;;;23.90;74.50;;;;;;1932942;72;21112;-73
2022/01/12 03:39:16;;;;;;;11.50;7.65;;;24.10;73.80;;;;;;1942160;72;21115;-72
2022/01/12 03:41:48;;;;;;;11.97;7.92;;;24.20;73.40;;;;;;1940813;72;21525;-73
2022/01/12 03:44:19;;;;;;;13.28;8.13;;;24.30;73.30;;;;;;1928899;73;21157;-74
2022/01/12 03:46:52;;;;;;;9.43;7.47;;;24.40;73.10;;;;;;1884614;74;21208;-73
2022/01/12 03:49:23;;;;;;;11.83;8.25;;;24.50;72.90;;;;;;1918771;73;21138;-73
2022/01/12 03:51:54;;;;;;;11.90;7.83;;;24.60;72.40;;;;;;1940038;72;21213;-72
2022/01/12 03:54:24;;;;;;;15.88;8.10;;;24.60;72.10;;;;;;1930526;72;21592;-72
2022/01/12 03:56:58;;;;;;;11.15;7.20;;;24.70;71.70;;;;;;1926940;73;21166;-72
2022/01/12 03:59:27;;;;;;;12.33;8.30;;;24.80;71.50;;;;;;1887214;74;21141;-73
2022/01/12 04:01:59;;;;;;;14.55;8.18;;;24.80;70.80;;;;;;1905940;73;21565;-72
2022/01/12 04:04:36;;;;;;;11.80;7.28;;;24.90;70.90;;;;;;1938492;72;21150;-72
2022/01/12 04:09:36;;;;;;;10.65;7.40;;;25.00;70.40;;;;;;1929981;72;22289;-72
2022/01/12 04:12:06;;;;;;;13.83;7.70;;;25.10;70.60;;;;;;1901922;73;21127;-73
2022/01/12 04:14:38;;;;;;;12.23;7.75;;;25.20;70.00;;;;;;1907583;73;21660;-72
2022/01/12 04:17:08;;;;;;;15.28;8.48;;;25.30;69.70;;;;;;1874708;74;21209;-72
2022/01/12 04:19:39;;;;;;;10.15;7.50;;;25.30;69.80;;;;;;1964421;70;21135;-71
2022/01/12 04:24:43;;;;;;;12.90;7.97;;;25.50;69.40;;;;;;1914949;73;21252;-70
2022/01/12 04:27:15;;;;;;;13.28;8.43;;;25.50;68.70;;;;;;1887014;73;21109;-70
2022/01/12 04:29:45;;;;;;;13.68;8.88;;;25.70;68.40;;;;;;1898629;74;21193;-70
2022/01/12 04:32:16;;;;;;;11.05;8.15;;;25.80;69.50;;;;;;1933787;72;21740;-70
2022/01/12 04:34:47;;;;;;;18.60;9.05;;;26.00;68.30;;;;;;1939434;71;21107;-70
2022/01/12 04:37:18;;;;;;;13.83;9.38;;;26.10;67.50;;;;;;1927769;72;21590;-71
2022/01/12 04:39:49;;;;;;;15.18;8.20;;;26.20;67.30;;;;;;1948862;71;21136;-71
2022/01/12 04:42:19;;;;;;;17.23;8.83;;;26.30;66.60;;;;;;1928774;71;21136;-72
2022/01/12 04:44:59;;;;;;;32.55;9.98;;;26.40;65.50;;;;;;1887474;73;21096;-71
2022/01/12 04:47:46;;;;;;;12.68;8.65;;;26.50;66.00;;;;;;1923912;72;21130;-72
2022/01/12 04:49:56;;;;;;;13.13;8.60;;;26.60;66.00;;;;;;1939183;72;21118;-71
2022/01/12 04:52:26;;;;;;;13.62;8.30;;;26.70;65.10;;;;;;1919456;72;21258;-70
2022/01/12 04:54:57;;;;;;;16.12;8.15;;;26.80;64.90;;;;;;1907577;73;21197;-70
2022/01/12 04:57:27;;;;;;;13.93;8.55;;;26.90;65.20;;;;;;1924202;71;21858;-71
2022/01/12 05:00:07;;;;;;;13.28;8.38;;;27.00;64.80;;;;;;1940740;72;21212;-71
2022/01/12 05:07:45;;;;;;;14.73;9.65;;;27.30;62.80;;;;;;1909396;73;21230;-71
2022/01/12 05:12:51;;;;;;;11.57;8.48;;;27.50;63.50;;;;;;1917405;72;21202;-70
2022/01/12 05:15:19;;;;;;;15.48;8.93;;;27.60;63.00;;;;;;1949524;71;21558;-70
2022/01/12 05:17:44;;;;;;;13.32;8.53;;;27.60;62.20;;;;;;1966119;71;21075;-70
2022/01/12 05:20:15;;;;;;;10.43;7.92;;;27.60;61.70;;;;;;1894684;72;21179;-70
2022/01/12 05:22:45;;;;;;;14.38;8.55;;;27.60;61.90;;;;;;1896710;73;21156;-70
2022/01/12 05:25:19;;;;;;;13.55;8.85;;;27.60;62.80;;;;;;1904115;72;21769;-71
2022/01/12 05:27:48;;;;;;;11.20;7.67;;;27.70;61.90;;;;;;1906487;73;21202;-71
2022/01/12 05:30:19;;;;;;;15.80;8.10;;;27.70;61.90;;;;;;1938909;71;21079;-71
2022/01/12 05:32:50;;;;;;;12.07;8.25;;;27.80;62.40;;;;;;1886818;72;21231;-71
2022/01/12 05:35:21;;;;;;;14.43;8.30;;;27.90;61.30;;;;;;1894086;73;21104;-71
2022/01/12 05:37:52;;;;;;;12.65;8.63;;;27.90;61.30;;;;;;1935255;72;21194;-71
2022/01/12 05:40:22;;;;;;;14.65;9.23;;;28.00;61.90;;;;;;1898923;73;21088;-71
2022/01/12 05:42:55;;;;;;;12.63;9.30;;;28.20;60.30;;;;;;1918593;73;21098;-70
2022/01/12 05:45:26;;;;;;;12.60;7.83;;;28.30;60.20;;;;;;1918323;73;21188;-71
2022/01/12 05:50:29;;;;;;;14.35;7.60;;;28.40;59.60;;;;;;1943375;72;21222;-71
2022/01/12 05:53:00;;;;;;;10.20;7.97;;;28.40;59.70;;;;;;1951986;72;21245;-71
2022/01/12 05:55:31;;;;;;;15.30;8.03;;;28.40;59.20;;;;;;1954175;72;21080;-70
2022/01/12 05:58:02;;;;;;;15.30;9.23;;;28.40;59.60;;;;;;1948169;71;21779;-70
2022/01/12 06:00:33;;;;;;;14.03;9.28;;;28.40;59.70;;;;;;1934282;71;21232;-70
2022/01/12 06:03:04;;;;;;;11.08;8.40;;;28.40;59.80;;;;;;1909600;73;21151;-71
2022/01/12 06:05:35;;;;;;;10.65;8.38;;;28.60;59.40;;;;;;1929773;71;21089;-71
2022/01/12 06:08:06;;;;;;;13.35;8.75;;;28.60;59.30;;;;;;1947088;72;21220;-71
2022/01/12 06:10:37;;;;;;;12.68;8.35;;;28.60;59.40;;;;;;1946548;72;21143;-71
2022/01/12 06:13:08;;;;;;;11.60;8.00;;;28.60;59.10;;;;;;1953480;72;22300;-71
2022/01/12 06:15:39;;;;;;;11.20;7.87;;;28.70;59.50;;;;;;1941708;72;21233;-71
2022/01/12 06:18:10;;;;;;;13.13;8.00;;;28.60;59.70;;;;;;1933995;72;21150;-71
2022/01/12 06:20:41;;;;;;;12.70;7.87;;;28.60;59.30;;;;;;1884359;73;21155;-70
2022/01/12 06:23:11;;;;;;;13.83;8.63;;;28.60;59.10;;;;;;1891591;72;21757;-70
2022/01/12 06:25:42;;;;;;;12.00;7.80;;;28.60;59.50;;;;;;1942796;72;21096;-70
2022/01/12 06:33:16;;;;;;;8.95;7.70;;;28.60;59.10;;;;;;1909417;73;21162;-71
2022/01/12 06:35:47;;;;;;;13.40;8.15;;;28.60;58.70;;;;;;1905593;73;21119;-71
2022/01/12 06:38:18;;;;;;;12.98;8.03;;;28.60;58.70;;;;;;1938234;73;21763;-71
2022/01/12 06:40:48;;;;;;;12.45;8.45;;;28.70;59.10;;;;;;1897864;72;21123;-71
2022/01/12 06:43:19;;;;;;;10.08;7.85;;;28.70;58.70;;;;;;1883158;73;21659;-71
2022/01/12 06:45:50;;;;;;;13.10;8.68;;;28.70;59.70;;;;;;1935220;71;21125;-71
2022/01/12 06:48:21;;;;;;;10.65;7.35;;;28.80;58.90;;;;;;1946141;71;21149;-72
2022/01/12 06:50:52;;;;;;;13.62;7.65;;;28.80;58.60;;;;;;1929470;72;21729;-72
2022/01/12 06:53:23;;;;;;;10.98;7.17;;;28.80;59.40;;;;;;1943593;72;21130;-72
2022/01/12 06:55:54;;;;;;;10.10;7.15;;;28.90;58.20;;;;;;1950601;72;21262;-72
2022/01/12 06:58:25;;;;;;;13.45;7.67;;;26.10;56.30;;;;;;1911632;73;21139;-73
2022/01/12 07:00:55;;;;;;;9.60;6.85;;;29.00;57.90;;;;;;1904283;73;21168;-71
2022/01/12 07:03:27;;;;;;;9.50;7.30;;;29.00;57.70;;;;;;1930623;72;22465;-71
2022/01/12 07:05:58;;;;;;;10.23;7.30;;;29.00;57.60;;;;;;1933029;71;21547;-71
2022/01/12 07:08:29;;;;;;;9.88;7.20;;;29.10;57.90;;;;;;1892526;73;21724;-72
2022/01/12 07:11:00;;;;;;;10.48;6.92;;;29.10;57.20;;;;;;1919766;73;21664;-72
2022/01/12 07:13:32;;;;;;;11.15;7.28;;;29.10;57.20;;;;;;1943535;72;21501;-71
2022/01/12 07:16:03;;;;;;;10.90;7.05;;;29.10;57.80;;;;;;1936563;72;21097;-72
2022/01/12 07:18:34;;;;;;;10.43;7.37;;;29.00;56.90;;;;;;1926959;72;21112;-72
2022/01/12 07:21:05;;;;;;;11.12;7.58;;;29.00;57.90;;;;;;1930710;72;21148;-70
2022/01/12 07:23:36;;;;;;;10.65;7.03;;;29.00;57.70;;;;;;1957850;70;21162;-70
2022/01/12 07:26:07;;;;;;;11.35;7.10;;;29.00;57.80;;;;;;1927935;72;21194;-70
2022/01/12 07:28:37;;;;;;;11.90;7.62;;;29.00;57.20;;;;;;1946604;71;21216;-70
2022/01/12 07:31:08;;;;;;;11.22;7.95;;;29.10;56.60;;;;;;1941874;72;21149;-71
2022/01/12 07:33:39;;;;;;;11.00;7.85;;;29.10;56.60;;;;;;1930192;71;21170;-70
2022/01/12 07:36:09;;;;;;;10.23;7.17;;;29.20;56.60;;;;;;1943365;72;21188;-70
2022/01/12 07:38:40;;;;;;;10.40;7.62;;;29.20;56.80;;;;;;1903824;73;22125;-70
2022/01/12 07:41:11;;;;;;;10.88;6.62;;;29.10;56.30;;;;;;1932352;72;21154;-71
2022/01/12 07:43:42;;;;;;;11.22;7.67;;;29.10;55.70;;;;;;1950463;72;21150;-70
2022/01/12 07:46:14;;;;;;;11.90;7.28;;;29.20;55.50;;;;;;1961300;72;21759;-70
2022/01/12 07:48:46;;;;;;;9.55;7.22;;;29.10;55.40;;;;;;1895489;73;21142;-70
2022/01/12 07:51:17;;;;;;;11.15;6.87;;;29.10;55.60;;;;;;1936421;72;21218;-70
2022/01/12 07:53:48;;;;;;;11.55;6.53;;;29.10;55.60;;;;;;1947906;71;22076;-70
2022/01/12 07:56:19;;;;;;;10.18;6.70;;;29.10;55.30;;;;;;1947308;71;21496;-69
2022/01/12 07:58:50;;;;;;;11.08;6.42;;;29.10;55.20;;;;;;1945854;72;21118;-70
2022/01/12 08:01:22;;;;;;;14.07;7.42;;;29.10;55.40;;;;;;1946945;71;21083;-70
2022/01/12 08:03:53;;;;;;;11.53;6.75;;;29.00;55.00;;;;;;1951065;72;21188;-70
2022/01/12 08:06:24;;;;;;;11.00;6.60;;;29.00;55.20;;;;;;1970192;71;21176;-70
2022/01/12 08:08:54;;;;;;;11.50;6.83;;;29.10;55.80;;;;;;1905638;72;21206;-70
2022/01/12 08:11:25;;;;;;;8.18;5.92;;;29.10;56.50;;;;;;1907708;73;21157;-70
2022/01/12 08:13:56;;;;;;;10.18;6.70;;;29.20;55.80;;;;;;1895483;73;21218;-70
2022/01/12 08:16:27;;;;;;;12.55;6.60;;;29.10;55.10;;;;;;1944903;71;21674;-70
2022/01/12 08:18:58;;;;;;;10.65;6.75;;;29.20;55.10;;;;;;1932107;72;21167;-71
2022/01/12 08:21:29;;;;;;;13.95;7.30;;;29.20;55.20;;;;;;1961428;71;21590;-71
2022/01/12 08:24:00;;;;;;;20.50;6.60;;;29.10;55.50;;;;;;1922864;70;21128;-71
2022/01/12 08:26:33;;;;;;;9.80;7.03;;;29.00;55.60;;;;;;1897350;73;21669;-71
2022/01/12 08:29:04;;;;;;;10.05;6.62;;;29.00;55.10;;;;;;1968444;71;21241;-70
2022/01/12 08:31:34;;;;;;;11.38;7.28;;;28.90;55.50;;;;;;1948390;71;21186;-70
2022/01/12 08:34:06;;;;;;;11.20;6.85;;;28.90;54.90;;;;;;1965185;70;21130;-71
2022/01/12 08:36:36;;;;;;;10.63;7.08;;;29.00;55.90;;;;;;1930055;72;21168;-70
2022/01/12 08:39:08;;;;;;;9.25;6.40;;;28.90;55.80;;;;;;1933702;72;21621;-70
2022/01/12 08:41:40;;;;;;;9.48;6.60;;;29.00;54.90;;;;;;1934088;72;21126;-70
2022/01/12 08:44:12;;;;;;;11.40;7.95;;;29.00;55.10;;;;;;1934104;71;21680;-70
2022/01/12 08:46:43;;;;;;;8.98;6.60;;;28.90;54.90;;;;;;1954425;71;21159;-71
2022/01/12 08:49:14;;;;;;;14.47;7.58;;;29.00;54.90;;;;;;1933634;72;21103;-70
2022/01/12 08:51:45;;;;;;;9.83;6.62;;;29.00;54.90;;;;;;1940319;72;21210;-70
2022/01/12 08:54:16;;;;;;;8.98;6.83;;;29.00;54.40;;;;;;1928676;72;21130;-69
2022/01/12 08:56:47;;;;;;;14.33;6.78;;;29.00;54.00;;;;;;1955023;71;21202;-71
2022/01/12 08:59:18;;;;;;;8.23;6.45;;;29.00;54.10;;;;;;1950597;72;21261;-70
2022/01/12 09:01:51;;;;;;;11.40;7.10;;;29.00;53.80;;;;;;1924856;72;21228;-71
2022/01/12 09:04:23;;;;;;;8.78;6.42;;;29.00;53.70;;;;;;1905829;73;21674;-71
2022/01/12 09:06:54;;;;;;;8.98;6.80;;;29.00;53.20;;;;;;1941961;72;21079;-71
2022/01/12 09:09:25;;;;;;;10.28;7.28;;;28.90;52.90;;;;;;1897918;72;21810;-69
2022/01/12 09:11:56;;;;;;;8.48;6.78;;;28.90;52.90;;;;;;1928672;71;21109;-71
2022/01/12 09:14:27;;;;;;;9.10;6.35;;;28.90;53.50;;;;;;1954496;71;21163;-70
2022/01/12 09:16:59;;;;;;;12.30;7.05;;;28.90;53.70;;;;;;1939869;72;21481;-71
2022/01/12 09:19:31;;;;;;;10.82;6.60;;;28.90;54.00;;;;;;1956584;72;21700;-70
2022/01/12 09:22:04;;;;;;;10.68;6.00;;;28.90;53.50;;;;;;1932382;72;21131;-71
2022/01/12 09:24:39;;;;;;;8.40;6.20;;;28.90;53.20;;;;;;1959062;71;21605;-71
2022/01/12 09:27:08;;;;;;;13.45;6.90;;;28.80;53.70;;;;;;1946623;71;21780;-70
2022/01/12 09:29:39;;;;;;;9.88;6.25;;;28.80;53.60;;;;;;1932164;73;21209;-71
2022/01/12 09:32:10;;;;;;;8.88;6.75;;;28.80;53.30;;;;;;1902506;73;21196;-70
2022/01/12 09:34:41;;;;;;;10.95;6.53;;;28.80;53.00;;;;;;1917540;73;21590;-71
2022/01/12 09:37:12;;;;;;;10.55;7.55;;;28.70;53.30;;;;;;1932649;72;21080;-71
2022/01/12 09:39:42;;;;;;;9.28;7.10;;;28.80;52.90;;;;;;1958096;71;21591;-71
2022/01/12 09:42:14;;;;;;;9.85;6.53;;;28.70;53.40;;;;;;1936501;72;21217;-71
2022/01/12 09:44:47;;;;;;;18.90;13.68;;;28.70;53.10;;;;;;1941226;71;21108;-71
2022/01/12 09:47:18;;;;;;;14.75;9.28;;;28.70;53.20;;;;;;1955596;71;21579;-71
2022/01/12 09:49:49;;;;;;;9.80;7.15;;;28.60;53.20;;;;;;1918147;72;21166;-70
2022/01/12 09:52:21;;;;;;;13.70;7.08;;;28.60;53.40;;;;;;1961259;71;21080;-70
2022/01/12 09:54:51;;;;;;;10.95;6.97;;;28.60;53.20;;;;;;1935640;72;21170;-69
2022/01/12 09:57:22;;;;;;;9.10;7.10;;;28.60;53.70;;;;;;1941566;71;21151;-71
2022/01/12 09:59:53;;;;;;;9.53;6.75;;;28.60;53.20;;;;;;1887478;73;21144;-72
2022/01/12 10:02:24;;;;;;;12.35;7.37;;;28.50;53.70;;;;;;1918689;73;21237;-72
2022/01/12 10:04:58;;;;;;;12.37;7.00;;;28.50;53.40;;;;;;1892425;73;21110;-71
2022/01/12 10:07:29;;;;;;;12.05;7.05;;;28.40;53.80;;;;;;1881754;74;21166;-70
2022/01/12 10:10:04;;;;;;;11.00;7.17;;;28.40;54.10;;;;;;1923652;72;21128;-70
2022/01/12 10:12:35;;;;;;;11.03;6.83;;;28.30;53.90;;;;;;1907878;72;21555;-71
2022/01/12 10:15:09;;;;;;;11.12;6.90;;;28.30;53.90;;;;;;1936338;72;21630;-72
2022/01/12 10:17:43;;;;;;;8.90;6.78;;;28.30;53.90;;;;;;1942437;72;21643;-71
2022/01/12 10:20:18;;;;;;;10.65;6.50;;;28.20;53.90;;;;;;1941644;72;21705;-70
2022/01/12 10:22:50;;;;;;;12.37;7.90;;;28.20;54.00;;;;;;1961336;71;21076;-71
2022/01/12 10:25:22;;;;;;;14.50;7.90;;;28.20;54.50;;;;;;1936919;71;21555;-71
2022/01/12 10:27:53;;;;;;;12.23;6.92;;;28.20;54.50;;;;;;1922441;72;21061;-71
2022/01/12 10:30:26;;;;;;;13.38;7.58;;;28.20;54.40;;;;;;1915502;72;21630;-70
2022/01/12 10:32:59;;;;;;;13.32;8.60;;;28.20;54.90;;;;;;1929756;71;21153;-71
2022/01/12 10:35:32;;;;;;;13.43;8.18;;;28.10;55.30;;;;;;1948106;72;21195;-71
2022/01/12 10:38:05;;;;;;;11.00;7.83;;;28.10;55.60;;;;;;1946161;71;21205;-72
2022/01/12 10:40:38;;;;;;;13.45;7.53;;;28.00;55.80;;;;;;1912553;73;21240;-71
2022/01/12 10:43:11;;;;;;;13.72;8.18;;;28.00;56.70;;;;;;1896276;73;21060;-71
2022/01/12 10:45:44;;;;;;;15.35;8.58;;;27.90;56.50;;;;;;1899412;73;21233;-71
2022/01/12 10:48:14;;;;;;;17.77;8.68;;;27.80;56.60;;;;;;1916128;73;21548;-71
2022/01/12 10:50:47;;;;;;;14.95;7.87;;;27.80;56.90;;;;;;1889626;73;21170;-71
2022/01/12 10:53:20;;;;;;;22.48;9.15;;;27.70;57.30;;;;;;1879561;74;21131;-71
2022/01/12 10:55:54;;;;;;;25.77;9.65;;;27.70;57.70;;;;;;1921224;73;21699;-71
2022/01/12 10:58:25;;;;;;;22.58;9.80;;;27.70;58.10;;;;;;1911345;73;21161;-71
2022/01/12 11:00:56;;;;;;;16.67;9.13;;;27.70;58.40;;;;;;1909451;73;21921;-71
2022/01/12 11:03:27;;;;;;;16.57;9.28;;;27.60;58.20;;;;;;1940037;72;21511;-71
2022/01/12 11:05:59;;;;;;;20.37;9.93;;;27.60;58.50;;;;;;1933171;72;21103;-71
2022/01/12 11:08:30;;;;;;;13.43;9.15;;;27.50;58.60;;;;;;1958863;71;21543;-72
2022/01/12 11:11:01;;;;;;;18.40;10.58;;;27.50;58.50;;;;;;1919409;72;21704;-72
2022/01/12 11:13:33;;;;;;;13.50;10.60;;;27.50;58.60;;;;;;1909139;73;21350;-71
2022/01/12 11:16:05;;;;;;;16.73;10.13;;;27.40;58.70;;;;;;1914627;72;21150;-71
2022/01/12 11:18:37;;;;;;;18.40;10.05;;;27.40;58.70;;;;;;1955143;71;21584;-71
2022/01/12 11:21:10;;;;;;;19.20;9.23;;;27.40;58.60;;;;;;1961490;71;21606;-71
2022/01/12 11:23:44;;;;;;;13.13;9.33;;;27.40;58.80;;;;;;1930812;72;21137;-72
2022/01/12 11:26:17;;;;;;;18.73;10.68;;;27.40;59.00;;;;;;1967371;71;21126;-70
2022/01/12 11:28:51;;;;;;;16.87;10.40;;;27.30;59.30;;;;;;1979248;71;21081;-70
2022/01/12 11:31:24;;;;;;;17.75;10.48;;;27.30;59.50;;;;;;1963211;71;21186;-70
2022/01/12 11:33:55;;;;;;;19.82;10.50;;;27.20;59.60;;;;;;1961080;71;21260;-70
2022/01/12 11:36:28;;;;;;;18.92;10.75;;;27.20;59.70;;;;;;1958645;71;21292;-70
2022/01/12 11:39:02;;;;;;;16.75;10.13;;;27.20;59.70;;;;;;1950738;71;21080;-71
2022/01/12 11:41:34;;;;;;;18.50;9.98;;;27.10;59.80;;;;;;1902085;73;21225;-71
2022/01/12 11:44:08;;;;;;;16.37;9.73;;;27.00;59.80;;;;;;1904667;73;21115;-71
2022/01/12 11:46:41;;;;;;;16.07;11.08;;;27.00;60.80;;;;;;1914376;72;21148;-71
2022/01/12 11:49:15;;;;;;;17.37;10.45;;;27.00;60.30;;;;;;1897581;73;21637;-85
2022/01/12 11:51:46;;;;;;;16.93;10.00;;;26.90;60.40;;;;;;1947507;72;21267;-81
2022/01/12 11:54:20;;;;;;;16.80;10.90;;;26.90;60.50;;;;;;1949590;70;21127;-83
2022/01/12 11:56:53;;;;;;;19.67;13.00;;;26.80;60.60;;;;;;1973705;71;21616;-81
2022/01/12 11:59:27;;;;;;;21.12;13.03;;;26.80;60.60;;;;;;1964087;71;21750;-81
2022/01/12 12:02:00;;;;;;;20.05;12.70;;;26.80;60.30;;;;;;1953221;71;21166;-82
2022/01/12 12:04:33;;;;;;;21.95;12.40;;;26.80;60.10;;;;;;1977941;71;21160;-82
2022/01/12 12:07:06;;;;;;;20.85;11.55;;;26.80;60.00;;;;;;1963525;72;21124;-83
2022/01/12 12:09:41;;;;;;;20.02;12.40;;;26.80;60.10;;;;;;1951642;71;21135;-83
2022/01/12 12:12:15;;;;;;;20.52;12.20;;;26.90;60.30;;;;;;1976493;71;21151;-82
2022/01/12 12:14:57;;;;;;;16.65;12.40;;;26.90;60.70;;;;;;1959521;72;21158;-85
2022/01/12 12:17:24;;;;;;;23.50;13.70;;;26.80;60.90;;;;;;1945307;72;23447;-82
2022/01/12 12:19:56;;;;;;;18.95;13.48;;;26.80;61.10;;;;;;1922933;72;21265;-83
2022/01/12 12:23:01;;;;;;;22.35;12.60;;;26.80;61.10;;;;;;1958171;72;21197;-83
2022/01/12 12:25:38;;;;;;;19.02;11.48;;;26.70;61.10;;;;;;1969942;71;21257;-82
2022/01/12 12:28:13;;;;;;;24.63;12.55;;;26.70;61.40;;;;;;1963287;71;21105;-82
2022/01/12 12:30:44;;;;;;;22.02;13.22;;;26.70;61.60;;;;;;1968258;71;21233;-83
2022/01/12 12:33:16;;;;;;;21.20;12.88;;;26.60;61.50;;;;;;1973648;71;21189;-83
2022/01/12 12:35:53;;;;;;;21.20;12.88;;;26.60;61.70;;;;;;1961968;72;21193;-82
2022/01/12 12:38:24;;;;;;;21.48;12.60;;;26.60;61.80;;;;;;1957355;71;21120;-81
2022/01/12 12:40:59;;;;;;;22.85;12.70;;;26.60;61.80;;;;;;1955395;71;21127;-83
2022/01/12 12:43:35;;;;;;;26.20;12.58;;;26.60;62.10;;;;;;1957798;71;21638;-82
2022/01/12 12:46:09;;;;;;;19.23;12.58;;;26.60;62.30;;;;;;1947611;71;21164;-82
2022/01/12 12:48:41;;;;;;;24.50;13.45;;;26.60;62.50;;;;;;1970645;72;21433;-82
2022/01/12 12:51:16;;;;;;;18.30;13.30;;;26.50;62.70;;;;;;1965966;71;21228;-82
2022/01/12 12:53:52;;;;;;;25.48;14.85;;;26.50;62.70;;;;;;1978705;70;21170;-82
2022/01/12 12:56:26;;;;;;;20.55;13.78;;;26.40;62.80;;;;;;1979331;72;21583;-82
2022/01/12 12:58:55;;;;;;;24.57;15.15;;;26.50;62.90;;;;;;1936957;71;21576;-82
2022/01/12 13:01:27;;;;;;;22.32;14.13;;;26.50;63.20;;;;;;1881837;74;21075;-82
2022/01/12 13:04:02;;;;;;;23.50;14.43;;;26.40;63.10;;;;;;1975349;70;21690;-81
2022/01/12 13:06:38;;;;;;;29.75;16.48;;;26.40;63.10;;;;;;1954825;71;21634;-83
2022/01/12 13:09:19;;;;;;;29.60;16.10;;;26.40;63.20;;;;;;1920630;71;21578;-81
2022/01/12 13:11:56;;;;;;;24.80;15.83;;;26.40;63.30;;;;;;1887923;73;21163;-82
2022/01/12 13:14:27;;;;;;;29.35;16.60;;;26.40;63.10;;;;;;1965772;70;21177;-82
2022/01/12 13:16:57;;;;;;;22.27;14.25;;;26.40;63.20;;;;;;1981752;70;21956;-83
2022/01/12 13:22:03;;;;;;;27.10;15.43;;;26.40;63.10;;;;;;1969475;72;21060;-82
2022/01/12 13:24:34;;;;;;;26.87;17.27;;;26.40;63.00;;;;;;1969304;71;21564;-83
2022/01/12 13:27:05;;;;;;;25.97;16.75;;;26.40;63.10;;;;;;1991189;71;21167;-82
2022/01/12 13:29:37;;;;;;;29.92;21.12;;;26.50;63.30;;;;;;1969599;71;21053;-82
2022/01/12 13:32:10;;;;;;;32.67;22.00;;;26.50;63.40;;;;;;1975506;70;21287;-82
2022/01/12 13:34:44;;;;;;;32.50;21.52;;;26.40;64.00;;;;;;1885885;74;21246;-82
2022/01/12 13:37:15;;;;;;;31.80;20.10;;;26.40;64.10;;;;;;1877453;75;21715;-82
2022/01/12 13:39:54;;;;;;;36.80;23.67;;;26.30;63.70;;;;;;1895837;73;21563;-82
2022/01/12 13:42:24;;;;;;;31.87;20.37;;;26.20;64.20;;;;;;1956786;70;21585;-82
2022/01/12 13:44:57;;;;;;;31.42;20.37;;;26.20;64.10;;;;;;1949983;72;21151;-81
2022/01/12 13:47:36;;;;;;;31.20;20.25;;;26.20;64.10;;;;;;1879919;73;21205;-82
2022/01/12 13:50:07;;;;;;;27.62;20.82;;;26.20;64.40;;;;;;1910387;73;21144;-83
2022/01/12 13:52:38;;;;;;;28.77;20.37;;;26.20;64.70;;;;;;1881199;74;21147;-81
2022/01/12 13:55:13;;;;;;;28.57;19.10;;;26.10;64.70;;;;;;1952791;72;21143;-82
2022/01/12 13:57:48;;;;;;;28.05;21.02;;;26.00;64.90;;;;;;1958792;72;21102;-83
2022/01/12 14:00:21;;;;;;;35.40;20.95;;;26.00;65.20;;;;;;1957920;72;21055;-82
2022/01/12 14:02:52;;;;;;;30.75;20.77;;;25.90;65.30;;;;;;1948223;72;21548;-81
2022/01/12 14:05:24;;;;;;;33.55;20.20;;;25.90;66.70;;;;;;1938276;73;21278;-82
2022/01/12 14:07:59;;;;;;;31.87;21.25;;;25.80;65.90;;;;;;1929926;73;21189;-82
2022/01/12 14:10:31;;;;;;;29.87;21.07;;;25.80;66.30;;;;;;1931600;73;21772;-82
2022/01/12 14:13:02;;;;;;;32.53;20.00;;;25.70;66.50;;;;;;1987767;71;21127;-82
2022/01/12 14:15:33;;;;;;;27.90;19.95;;;25.70;66.30;;;;;;1958388;71;21100;-83
2022/01/12 14:18:06;;;;;;;32.40;20.35;;;25.70;66.60;;;;;;1916554;72;21077;-83
2022/01/12 14:20:38;;;;;;;31.07;19.98;;;25.70;66.70;;;;;;1906617;72;21087;-83
2022/01/12 14:23:11;;;;;;;33.40;19.75;;;25.70;66.80;;;;;;1920957;72;21287;-82
2022/01/12 14:25:44;;;;;;;28.85;19.52;;;25.60;66.80;;;;;;1966569;71;21577;-83
2022/01/12 14:28:17;;;;;;;25.62;18.73;;;25.60;66.90;;;;;;1977804;70;21123;-82
2022/01/12 14:30:48;;;;;;;33.42;19.32;;;25.50;67.40;;;;;;1957832;71;21159;-81
2022/01/12 14:33:19;;;;;;;37.98;19.48;;;25.60;67.40;;;;;;1927576;72;21080;-82
2022/01/12 14:35:51;;;;;;;36.55;20.10;;;25.50;67.70;;;;;;1897093;73;21701;-83
2022/01/12 14:38:23;;;;;;;26.23;18.00;;;25.40;68.30;;;;;;1924521;73;21060;-82
2022/01/12 14:40:54;;;;;;;29.90;18.35;;;25.30;69.00;;;;;;1920432;73;21206;-81
2022/01/12 14:43:29;;;;;;;28.15;17.55;;;25.20;69.60;;;;;;1967060;71;21592;-81
2022/01/12 14:45:58;;;;;;;28.30;17.62;;;25.10;70.40;;;;;;1964544;71;21159;-83
2022/01/12 14:48:29;;;;;;;29.23;17.82;;;25.10;70.30;;;;;;1971505;71;21136;-82
2022/01/12 14:51:01;;;;;;;35.70;17.42;;;25.10;70.50;;;;;;1966409;72;21056;-81